Smithville, Tennessee
Current Conditions -  °F | °C
As of 6:15 AM on Sunday 25 Jan 2015 (Local Time) from KSRB Reporting Station
Clear Clear  
Wind Chill: 30°   Ceiling: Unl
Heat Index: 34°   Visibility: 10mi
Dew Point: 30°   Wind: 5mph
Humidity: 87%   Direction: 170°S
Pressure: 29.81"   Gusts: NA
Location:  35.96°N, 85.81°W
Report Text: KSRB 251215Z AUTO 17004KT 10SM CLR 01/M01 A2981 RMK
Loading
Personal Weather Stations






























Interactive Weather Map New forecast layout! Learn more

10-Day Weather Forecast

Advertisements
Track Severe Weather on mobile